createdAt,value
2023-04-23T00:02:16.133Z,74.97
2023-04-23T00:04:51.087Z,79.97
2023-04-23T00:07:21.460Z,77.22
2023-04-23T00:09:51.913Z,78.93
2023-04-23T00:12:19.270Z,73.18
2023-04-23T00:14:46.736Z,76.82
2023-04-23T00:17:13.619Z,68.57
2023-04-23T00:19:40.879Z,72.47
2023-04-23T00:22:08.100Z,72.13
2023-04-23T00:24:37.258Z,75.53
2023-04-23T00:27:03.960Z,76.68
2023-04-23T00:29:31.549Z,73.93
2023-04-23T00:31:58.449Z,72.07
2023-04-23T00:34:26.874Z,75.43
2023-04-23T00:36:53.602Z,74.50
2023-04-23T00:39:20.881Z,72.85
2023-04-23T00:41:48.249Z,68.35
2023-04-23T00:44:15.615Z,79.88
2023-04-23T00:46:42.466Z,72.28
2023-04-23T00:49:10.325Z,71.72
2023-04-23T00:51:37.153Z,80.25
2023-04-23T00:54:04.592Z,75.25
2023-04-23T00:56:31.222Z,73.85
2023-04-23T00:58:58.527Z,77.15
2023-04-23T01:01:25.946Z,78.63
2023-04-23T01:03:54.184Z,76.32
2023-04-23T01:06:21.459Z,78.95
2023-04-23T01:08:48.915Z,76.55
2023-04-23T01:11:16.632Z,82.65
2023-04-23T01:13:44.064Z,81.95
2023-04-23T01:16:11.521Z,78.80
2023-04-23T01:18:41.240Z,80.97
2023-04-23T01:21:10.714Z,83.00
2023-04-23T01:23:38.522Z,83.32
2023-04-23T01:26:05.380Z,83.35
2023-04-23T01:28:33.411Z,87.85
2023-04-23T01:31:00.676Z,88.30
2023-04-23T01:33:30.818Z,82.90
2023-04-23T01:35:58.250Z,82.35
2023-04-23T01:38:28.688Z,81.82
2023-04-23T01:40:55.349Z,92.97
2023-04-23T01:43:25.662Z,86.50
2023-04-23T01:45:53.213Z,84.25
2023-04-23T01:48:21.026Z,92.10
2023-04-23T01:50:48.553Z,93.38
2023-04-23T01:53:15.654Z,85.80
2023-04-23T01:55:47.108Z,88.97
2023-04-23T01:58:14.684Z,88.80
2023-04-23T02:00:41.974Z,90.95
2023-04-23T02:03:09.319Z,85.78
2023-04-23T02:05:38.198Z,84.60
2023-04-23T02:08:05.260Z,92.55
2023-04-23T02:10:32.049Z,82.05
2023-04-23T02:12:59.655Z,87.18
2023-04-23T02:15:27.011Z,91.13
2023-04-23T02:17:53.860Z,85.43
2023-04-23T02:20:22.103Z,85.90
2023-04-23T02:22:49.369Z,88.80
2023-04-23T02:25:18.194Z,94.28
2023-04-23T02:27:45.309Z,86.57
2023-04-23T02:30:13.118Z,91.10
2023-04-23T02:32:41.998Z,89.78
2023-04-23T02:35:10.386Z,93.40
2023-04-23T02:37:37.721Z,103.50
2023-04-23T02:40:05.874Z,93.85
2023-04-23T02:42:33.201Z,94.07
2023-04-23T02:44:59.872Z,90.88
2023-04-23T02:47:27.303Z,95.85
2023-04-23T02:49:54.102Z,97.25
2023-04-23T02:52:21.256Z,95.30
2023-04-23T02:54:48.575Z,95.78
2023-04-23T02:57:16.343Z,99.05
2023-04-23T02:59:43.976Z,100.93
2023-04-23T03:02:11.175Z,93.68
2023-04-23T03:04:38.806Z,98.30
2023-04-23T03:07:05.500Z,99.80
2023-04-23T03:09:33.053Z,96.13
2023-04-23T03:11:59.795Z,91.75
2023-04-23T03:14:27.043Z,91.03
2023-04-23T03:16:53.770Z,92.20
2023-04-23T03:19:21.186Z,95.40
2023-04-23T03:21:47.973Z,87.10
2023-04-23T03:24:16.838Z,96.32
2023-04-23T03:26:44.119Z,88.10
2023-04-23T03:29:11.466Z,88.05
2023-04-23T03:31:38.264Z,96.82
2023-04-23T03:34:07.964Z,90.07
2023-04-23T03:36:35.877Z,89.95
2023-04-23T03:39:03.681Z,88.38
2023-04-23T03:41:42.475Z,87.13
2023-04-23T03:44:11.549Z,86.13
2023-04-23T03:46:40.875Z,90.28
2023-04-23T03:49:08.371Z,82.57
2023-04-23T03:51:35.353Z,77.25
2023-04-23T03:54:02.646Z,81.22
2023-04-23T03:56:41.242Z,79.18
2023-04-23T03:59:28.752Z,80.78
2023-04-23T04:01:58.605Z,81.18
2023-04-23T04:04:27.042Z,87.80
2023-04-23T04:06:55.710Z,79.95
2023-04-23T04:09:27.904Z,93.78
2023-04-23T04:11:55.489Z,89.72
2023-04-23T04:14:23.392Z,90.53
2023-04-23T04:16:50.102Z,92.90
2023-04-23T04:19:17.354Z,86.72
2023-04-23T04:21:44.040Z,93.97
2023-04-23T04:24:11.758Z,93.32
2023-04-23T04:26:38.557Z,95.53
2023-04-23T04:29:06.039Z,89.10
2023-04-23T04:31:33.369Z,97.53
2023-04-23T04:34:01.001Z,103.38
2023-04-23T04:36:28.731Z,102.05
2023-04-23T04:38:58.458Z,89.40
2023-04-23T04:41:25.905Z,89.53
2023-04-23T04:43:53.371Z,90.25
2023-04-23T04:46:20.703Z,90.57
2023-04-23T04:48:48.361Z,94.60
2023-04-23T04:51:15.511Z,97.65
2023-04-23T04:53:42.585Z,93.13
2023-04-23T04:56:09.873Z,102.78
2023-04-23T04:58:36.941Z,84.22
2023-04-23T05:01:04.208Z,90.95
2023-04-23T05:03:31.764Z,98.53
2023-04-23T05:05:59.291Z,86.65
2023-04-23T05:08:25.991Z,103.00
2023-04-23T05:10:54.479Z,98.78
2023-04-23T05:13:21.548Z,90.72
2023-04-23T05:15:48.885Z,88.07
2023-04-23T05:18:15.573Z,81.85
2023-04-23T05:20:43.189Z,79.28
2023-04-23T05:23:10.024Z,83.38
2023-04-23T05:25:37.313Z,76.68
2023-04-23T05:28:04.237Z,73.30
2023-04-23T05:30:31.632Z,70.78
2023-04-23T05:32:58.365Z,78.43
2023-04-23T05:35:25.925Z,70.10
2023-04-23T05:37:52.545Z,70.22
2023-04-23T05:40:20.034Z,73.55
2023-04-23T05:42:46.754Z,67.68
2023-04-23T05:45:14.184Z,68.55
2023-04-23T05:47:40.833Z,72.75
2023-04-23T05:50:08.518Z,69.03
2023-04-23T05:52:37.200Z,70.93
2023-04-23T05:55:04.926Z,66.40
2023-04-23T05:57:31.514Z,64.68
2023-04-23T05:59:58.980Z,65.28
2023-04-23T06:02:25.982Z,66.05
2023-04-23T06:04:53.549Z,63.78
2023-04-23T06:07:20.589Z,65.85
2023-04-23T06:09:47.932Z,60.72
2023-04-23T06:12:14.536Z,61.03
2023-04-23T06:14:42.265Z,64.97
2023-04-23T06:17:09.126Z,60.30
2023-04-23T06:19:36.386Z,60.40
2023-04-23T06:22:03.073Z,52.25
2023-04-23T06:24:30.664Z,53.78
2023-04-23T06:26:57.743Z,51.45
2023-04-23T06:29:26.507Z,52.83
2023-04-23T06:31:57.578Z,48.75
2023-04-23T06:34:24.940Z,39.22
2023-04-23T06:36:51.924Z,32.10
2023-04-23T06:39:19.198Z,26.25
2023-04-23T06:41:45.948Z,21.20
2023-04-23T06:44:21.481Z,18.27
2023-04-23T06:49:21.419Z,20.05
2023-04-23T06:51:48.495Z,19.85
2023-04-23T06:54:15.917Z,17.52
2023-04-23T06:56:42.554Z,17.52
2023-04-23T06:59:09.281Z,13.95
2023-04-23T07:01:43.823Z,16.42
2023-04-23T07:04:11.491Z,13.95
2023-04-23T07:06:38.122Z,11.82
2023-04-23T07:09:05.517Z,12.23
2023-04-23T07:11:34.647Z,11.88
2023-04-23T07:14:02.115Z,11.85
2023-04-23T07:16:33.322Z,12.55
2023-04-23T07:19:02.432Z,10.60
2023-04-23T07:21:29.545Z,12.45
2023-04-23T07:24:07.511Z,11.40
2023-04-23T07:26:35.396Z,10.57
2023-04-23T07:29:03.991Z,9.05
2023-04-23T07:31:30.921Z,7.50
2023-04-23T07:33:58.283Z,10.27
2023-04-23T07:36:25.035Z,7.68
2023-04-23T07:38:52.427Z,8.57
2023-04-23T07:41:19.082Z,8.00
2023-04-23T07:43:46.582Z,8.00
2023-04-23T07:46:13.246Z,6.00
2023-04-23T07:48:40.708Z,9.65
2023-04-23T07:51:09.517Z,7.85
2023-04-23T07:53:37.085Z,7.15
2023-04-23T07:56:03.774Z,9.85
2023-04-23T07:58:33.035Z,7.80
2023-04-23T08:00:59.734Z,12.25
2023-04-23T08:03:29.311Z,8.57
2023-04-23T08:05:56.715Z,8.05
2023-04-23T08:08:24.107Z,9.65
2023-04-23T08:10:50.978Z,11.25
2023-04-23T08:13:18.342Z,12.52
2023-04-23T08:15:45.038Z,9.25
2023-04-23T08:18:12.427Z,9.10
2023-04-23T08:20:39.356Z,10.68
2023-04-23T08:23:07.295Z,10.18
2023-04-23T08:25:34.541Z,15.70
2023-04-23T08:28:02.531Z,10.65
2023-04-23T08:30:29.204Z,8.70
2023-04-23T08:32:56.234Z,13.45
2023-04-23T08:35:23.956Z,15.63
2023-04-23T08:37:51.356Z,5.35
2023-04-23T08:40:18.055Z,10.20
2023-04-23T08:42:57.111Z,12.57
2023-04-23T08:45:24.625Z,8.60
2023-04-23T08:47:51.971Z,15.80
2023-04-23T08:50:20.028Z,12.20
2023-04-23T08:52:53.427Z,9.02
2023-04-23T08:57:50.320Z,13.75
2023-04-23T09:00:20.141Z,10.18
2023-04-23T09:02:49.570Z,10.82
2023-04-23T09:05:16.993Z,10.93
2023-04-23T09:07:44.801Z,11.63
2023-04-23T09:10:14.717Z,9.60
2023-04-23T09:12:46.956Z,11.27
2023-04-23T09:15:13.826Z,9.27
2023-04-23T09:18:00.976Z,14.02
2023-04-23T09:20:27.875Z,10.32
2023-04-23T09:22:54.848Z,9.95
2023-04-23T09:25:23.643Z,10.55
2023-04-23T09:27:52.787Z,8.90
2023-04-23T09:30:19.865Z,10.02
2023-04-23T09:32:47.689Z,12.98
2023-04-23T09:35:16.843Z,11.00
2023-04-23T09:37:49.325Z,9.48
2023-04-23T09:40:19.937Z,12.50
2023-04-23T09:42:52.997Z,8.80
2023-04-23T09:47:55.606Z,6.80
2023-04-23T09:50:36.734Z,9.48
2023-04-23T09:53:04.247Z,9.80
2023-04-23T09:55:48.776Z,13.55
2023-04-23T09:58:16.227Z,7.72
2023-04-23T10:00:43.554Z,12.63
2023-04-23T10:03:12.471Z,7.75
2023-04-23T10:08:14.232Z,9.45
2023-04-23T10:10:55.142Z,8.55
2023-04-23T10:13:28.321Z,7.47
2023-04-23T10:15:58.989Z,5.20
2023-04-23T10:18:33.637Z,6.68
2023-04-23T10:21:02.445Z,12.63
2023-04-23T10:23:31.116Z,6.88
2023-04-23T10:26:00.420Z,6.45
2023-04-23T10:28:32.838Z,8.85
2023-04-23T10:31:00.543Z,11.15
2023-04-23T10:33:35.406Z,8.45
2023-04-23T10:36:10.173Z,8.60
2023-04-23T10:41:38.708Z,6.05
2023-04-23T10:44:07.511Z,11.30
2023-04-23T10:46:37.102Z,8.15
2023-04-23T10:49:09.918Z,8.65
2023-04-23T10:54:10.050Z,5.95
2023-04-23T10:56:43.658Z,8.35
2023-04-23T10:59:21.563Z,6.15
2023-04-23T11:01:50.456Z,9.13
2023-04-23T11:04:22.990Z,6.07
2023-04-23T11:06:51.072Z,7.00
2023-04-23T11:09:37.805Z,4.00
2023-04-23T11:12:27.433Z,6.32
2023-04-23T11:14:55.519Z,11.43
2023-04-23T11:17:31.921Z,13.05
2023-04-23T11:20:10.834Z,4.90
2023-04-23T11:22:51.453Z,6.82
2023-04-23T11:25:22.776Z,6.30
2023-04-23T11:27:51.549Z,7.10
2023-04-23T11:30:26.543Z,9.77
2023-04-23T11:32:55.536Z,10.20
2023-04-23T11:35:28.561Z,7.55
2023-04-23T11:37:55.233Z,7.65
2023-04-23T11:40:24.172Z,3.67
2023-04-23T11:42:54.401Z,11.32
2023-04-23T11:45:24.038Z,5.55
2023-04-23T11:47:55.818Z,6.45
2023-04-23T11:50:24.728Z,7.30
2023-04-23T11:52:52.576Z,10.43
2023-04-23T11:55:21.169Z,5.13
2023-04-23T11:57:50.470Z,5.70
2023-04-23T12:00:19.106Z,10.00
2023-04-23T12:03:03.544Z,8.00
2023-04-23T12:05:33.262Z,3.50
2023-04-23T12:08:16.375Z,3.70
2023-04-23T12:10:50.164Z,8.60
2023-04-23T12:13:18.674Z,4.68
2023-04-23T12:15:51.053Z,12.27
2023-04-23T12:18:18.429Z,7.30
2023-04-23T12:20:46.512Z,4.30
2023-04-23T12:23:13.221Z,11.25
2023-04-23T12:25:42.494Z,6.70
2023-04-23T12:28:09.118Z,5.50
2023-04-23T12:30:43.783Z,8.10
2023-04-23T12:33:11.750Z,8.75
2023-04-23T12:35:50.161Z,8.30
2023-04-23T12:38:36.206Z,4.90
2023-04-23T12:41:03.584Z,9.05
2023-04-23T12:43:30.862Z,6.47
2023-04-23T12:45:58.141Z,5.88
2023-04-23T12:48:24.921Z,7.43
2023-04-23T12:50:52.211Z,9.27
2023-04-23T12:53:19.009Z,8.90
2023-04-23T12:55:46.328Z,10.23
2023-04-23T12:58:16.378Z,6.72
2023-04-23T13:00:43.636Z,3.70
2023-04-23T13:03:10.409Z,3.88
2023-04-23T13:05:37.793Z,7.47
2023-04-23T13:08:04.650Z,6.97
2023-04-23T13:10:33.008Z,11.00
2023-04-23T13:12:59.656Z,6.90
2023-04-23T13:15:27.194Z,7.25
2023-04-23T13:17:53.996Z,4.97
2023-04-23T13:20:21.893Z,8.15
2023-04-23T13:22:48.532Z,8.18
2023-04-23T13:25:16.041Z,8.18
2023-04-23T13:27:42.749Z,8.05
2023-04-23T13:30:10.465Z,5.65
2023-04-23T13:32:37.095Z,6.25
2023-04-23T13:35:05.444Z,2.55
2023-04-23T13:37:32.335Z,10.40
2023-04-23T13:39:59.615Z,7.32
2023-04-23T13:42:26.254Z,5.90
2023-04-23T13:44:53.580Z,8.25
2023-04-23T13:47:20.312Z,8.13
2023-04-23T13:49:48.019Z,9.15
2023-04-23T13:52:14.681Z,7.20
2023-04-23T13:54:42.471Z,9.57
2023-04-23T13:57:09.204Z,5.00
2023-04-23T13:59:36.512Z,3.55
2023-04-23T14:02:03.235Z,6.07
2023-04-23T14:04:30.295Z,9.07
2023-04-23T14:06:57.556Z,8.75
2023-04-23T14:09:24.220Z,5.93
2023-04-23T14:11:52.139Z,5.57
2023-04-23T14:14:18.820Z,7.47
2023-04-23T14:16:46.071Z,11.05
2023-04-23T14:19:12.798Z,4.95
2023-04-23T14:21:40.789Z,6.82
2023-04-23T14:24:44.500Z,5.45
2023-04-23T14:27:11.205Z,6.28
2023-04-23T14:29:48.006Z,7.07
2023-04-23T14:32:14.690Z,5.57
2023-04-23T14:34:42.015Z,5.50
2023-04-23T14:37:09.325Z,8.60
2023-04-23T14:39:36.325Z,7.47
2023-04-23T14:42:03.199Z,4.90
2023-04-23T14:44:30.595Z,6.00
2023-04-23T14:46:57.329Z,3.88
2023-04-23T14:49:24.836Z,11.68
2023-04-23T14:51:54.417Z,5.32
2023-04-23T14:54:22.690Z,5.43
2023-04-23T14:56:50.555Z,6.65
2023-04-23T14:59:17.916Z,4.25
2023-04-23T15:01:44.979Z,4.50
2023-04-23T15:04:12.622Z,4.85
2023-04-23T15:06:40.568Z,8.38
2023-04-23T15:09:07.984Z,11.10
2023-04-23T15:11:34.732Z,7.30
2023-04-23T15:14:09.496Z,7.53
2023-04-23T15:19:09.172Z,8.65
2023-04-23T15:21:36.440Z,9.93
2023-04-23T15:24:03.548Z,7.63
2023-04-23T15:26:33.473Z,11.82
2023-04-23T15:29:00.989Z,11.90
2023-04-23T15:31:27.957Z,11.77
2023-04-23T15:33:54.955Z,8.85
2023-04-23T15:36:21.597Z,11.80
2023-04-23T15:38:48.524Z,6.78
2023-04-23T15:41:15.602Z,11.55
2023-04-23T15:43:42.209Z,6.20
2023-04-23T15:46:09.236Z,10.15
2023-04-23T15:48:35.947Z,11.98
2023-04-23T15:51:03.463Z,9.73
2023-04-23T15:53:30.169Z,10.88
2023-04-23T15:55:57.823Z,10.82
2023-04-23T15:58:24.437Z,8.60
2023-04-23T16:00:51.521Z,9.07
2023-04-23T16:03:18.303Z,9.95
2023-04-23T16:05:48.104Z,11.98
2023-04-23T16:08:16.163Z,8.45
2023-04-23T16:10:43.350Z,9.27
2023-04-23T16:13:10.126Z,9.82
2023-04-23T16:15:37.166Z,10.52
2023-04-23T16:18:03.991Z,5.43
2023-04-23T16:20:31.469Z,11.93
2023-04-23T16:22:58.198Z,11.93
2023-04-23T16:25:25.506Z,9.88
2023-04-23T16:27:52.249Z,8.15
2023-04-23T16:30:18.972Z,10.70
2023-04-23T16:32:45.921Z,11.27
2023-04-23T16:35:12.924Z,11.20
2023-04-23T16:37:39.601Z,15.00
2023-04-23T16:40:07.361Z,12.48
2023-04-23T16:42:34.049Z,10.75
2023-04-23T16:45:01.853Z,12.35
2023-04-23T16:47:28.571Z,7.15
2023-04-23T16:49:55.584Z,6.95
2023-04-23T16:52:22.630Z,4.60
2023-04-23T16:54:49.727Z,10.93
2023-04-23T16:57:17.202Z,9.73
2023-04-23T16:59:44.756Z,7.70
2023-04-23T17:02:11.725Z,8.88
2023-04-23T17:04:39.008Z,8.20
2023-04-23T17:07:06.020Z,5.70
2023-04-23T17:09:33.316Z,12.20
2023-04-23T17:11:59.938Z,7.75
2023-04-23T17:14:27.952Z,11.18
2023-04-23T17:16:55.961Z,11.95
2023-04-23T17:19:22.936Z,6.10
2023-04-23T17:21:49.644Z,7.20
2023-04-23T17:24:17.021Z,7.25
2023-04-23T17:26:43.699Z,7.78
2023-04-23T17:29:11.082Z,17.40
2023-04-23T17:31:38.424Z,19.60
2023-04-23T17:34:05.954Z,14.20
2023-04-23T17:36:32.856Z,8.27
2023-04-23T17:39:00.221Z,11.95
2023-04-23T17:41:26.839Z,5.93
2023-04-23T17:43:53.820Z,7.45
2023-04-23T17:46:20.676Z,8.80
2023-04-23T17:48:48.445Z,8.60
2023-04-23T17:51:15.181Z,7.90
2023-04-23T17:53:42.692Z,7.65
2023-04-23T17:56:10.002Z,7.05
2023-04-23T17:58:38.350Z,9.77
2023-04-23T18:01:07.007Z,7.70
2023-04-23T18:03:34.442Z,14.48
2023-04-23T18:06:01.902Z,6.72
2023-04-23T18:08:29.785Z,11.65
2023-04-23T18:10:56.585Z,7.38
2023-04-23T18:13:23.920Z,8.75
2023-04-23T18:15:50.705Z,5.25
2023-04-23T18:18:18.540Z,7.53
2023-04-23T18:20:46.000Z,4.50
2023-04-23T18:23:14.497Z,5.85
2023-04-23T18:25:41.862Z,6.25
2023-04-23T18:28:09.274Z,4.38
2023-04-23T18:30:37.832Z,5.68
2023-04-23T18:33:36.610Z,7.00
2023-04-23T18:36:25.616Z,4.05
2023-04-23T18:38:52.942Z,6.55
2023-04-23T18:41:19.589Z,6.78
2023-04-23T18:43:47.021Z,5.35
2023-04-23T18:46:13.902Z,5.75
2023-04-23T18:48:53.064Z,4.32
2023-04-23T18:51:24.336Z,7.45
2023-04-23T18:53:51.932Z,6.07
2023-04-23T18:56:19.660Z,4.63
2023-04-23T18:58:46.923Z,5.55
2023-04-23T19:01:13.877Z,7.20
2023-04-23T19:03:41.400Z,5.47
2023-04-23T19:06:08.375Z,4.88
2023-04-23T19:08:36.181Z,4.88
2023-04-23T19:11:03.468Z,4.47
2023-04-23T19:13:30.793Z,2.80
2023-04-23T19:15:57.630Z,4.15
2023-04-23T19:18:24.958Z,6.35
2023-04-23T19:20:52.651Z,3.47
2023-04-23T19:23:20.562Z,4.05
2023-04-23T19:25:47.962Z,5.10
2023-04-23T19:28:15.269Z,2.15
2023-04-23T19:30:42.075Z,2.40
2023-04-23T19:33:09.338Z,2.05
2023-04-23T19:35:38.566Z,3.72
2023-04-23T19:38:07.386Z,1.15
2023-04-23T19:40:34.057Z,4.75
2023-04-23T19:43:01.441Z,2.97
2023-04-23T19:45:29.849Z,0.77
2023-04-23T19:47:57.771Z,5.85
2023-04-23T19:50:25.376Z,1.45
2023-04-23T19:52:53.099Z,0.75
2023-04-23T19:55:22.085Z,1.17
2023-04-23T19:57:49.457Z,1.58
2023-04-23T20:00:16.521Z,0.60
2023-04-23T20:02:43.704Z,0.95
2023-04-23T20:05:11.121Z,1.98
2023-04-23T20:07:39.045Z,1.52
2023-04-23T20:10:06.360Z,2.47
2023-04-23T20:12:33.749Z,1.02
2023-04-23T20:15:00.811Z,2.50
2023-04-23T20:17:29.700Z,2.08
2023-04-23T20:20:02.061Z,4.38
2023-04-23T20:22:29.634Z,1.85
2023-04-23T20:24:58.014Z,1.38
2023-04-23T20:27:26.187Z,0.57
2023-04-23T20:29:53.218Z,2.40
2023-04-23T20:32:19.998Z,2.30
2023-04-23T20:34:47.380Z,2.45
2023-04-23T20:37:14.125Z,1.50
2023-04-23T20:39:42.123Z,2.95
2023-04-23T20:42:08.942Z,0.82
2023-04-23T20:44:36.479Z,2.20
2023-04-23T20:47:08.207Z,1.15
2023-04-23T20:49:35.394Z,3.07
2023-04-23T20:52:02.060Z,1.48
2023-04-23T20:54:29.406Z,3.58
2023-04-23T20:56:56.538Z,3.22
2023-04-23T20:59:23.521Z,1.55
2023-04-23T21:01:50.598Z,1.55
2023-04-23T21:04:17.504Z,0.70
2023-04-23T21:06:44.424Z,6.40
2023-04-23T21:09:11.724Z,3.03
2023-04-23T21:11:38.799Z,1.83
2023-04-23T21:14:08.978Z,1.90
2023-04-23T21:16:36.789Z,4.57
2023-04-23T21:19:05.078Z,2.70
2023-04-23T21:21:32.277Z,2.28
2023-04-23T21:24:03.351Z,4.80
2023-04-23T21:26:31.009Z,1.17
2023-04-23T21:28:58.555Z,2.10
2023-04-23T21:31:48.373Z,8.88
2023-04-23T21:34:15.969Z,2.88
2023-04-23T21:36:44.601Z,1.58
2023-04-23T21:39:13.269Z,2.38
2023-04-23T21:41:40.355Z,6.03
2023-04-23T21:44:08.719Z,3.58
2023-04-23T21:46:35.490Z,2.83
2023-04-23T21:49:02.804Z,1.65
2023-04-23T21:51:29.854Z,1.23
2023-04-23T21:53:57.319Z,3.72
2023-04-23T21:56:24.051Z,2.83
2023-04-23T21:58:51.335Z,3.88
2023-04-23T22:01:18.159Z,6.65
2023-04-23T22:03:47.303Z,2.40
2023-04-23T22:06:15.753Z,2.83
2023-04-23T22:08:44.900Z,1.85
2023-04-23T22:11:12.495Z,4.95
2023-04-23T22:13:39.821Z,6.43
2023-04-23T22:16:16.433Z,1.92
2023-04-23T22:18:52.280Z,3.58
2023-04-23T22:21:18.964Z,5.00
2023-04-23T22:23:46.507Z,6.13
2023-04-23T22:26:13.204Z,4.18
2023-04-23T22:28:40.511Z,4.40
2023-04-23T22:31:07.109Z,3.08
2023-04-23T22:33:35.262Z,2.45
2023-04-23T22:36:02.610Z,4.20
2023-04-23T22:38:29.863Z,6.00
2023-04-23T22:40:56.480Z,3.88
2023-04-23T22:43:23.707Z,6.35
2023-04-23T22:45:50.710Z,4.25
2023-04-23T22:48:18.118Z,2.97
2023-04-23T22:50:44.761Z,3.33
2023-04-23T22:53:12.054Z,4.05
2023-04-23T22:55:39.284Z,5.00
2023-04-23T22:58:06.542Z,5.32
2023-04-23T23:00:33.310Z,6.13
2023-04-23T23:03:00.780Z,2.28
2023-04-23T23:05:27.524Z,3.15
2023-04-23T23:07:55.780Z,4.45
2023-04-23T23:10:23.110Z,3.17
2023-04-23T23:12:50.726Z,8.73
2023-04-23T23:15:17.388Z,2.38
2023-04-23T23:17:44.700Z,3.50
2023-04-23T23:20:11.898Z,3.78
2023-04-23T23:22:39.221Z,3.20
2023-04-23T23:25:07.293Z,3.63
2023-04-23T23:27:34.762Z,2.80
2023-04-23T23:30:05.582Z,4.03
2023-04-23T23:32:33.879Z,4.72
2023-04-23T23:35:00.693Z,2.22
2023-04-23T23:37:28.306Z,4.72
2023-04-23T23:39:55.357Z,3.53
2023-04-23T23:42:22.779Z,3.95
2023-04-23T23:44:49.348Z,5.35
2023-04-23T23:47:16.646Z,4.43
2023-04-23T23:49:43.606Z,6.80
2023-04-23T23:52:11.331Z,6.03
2023-04-23T23:54:37.966Z,7.03
2023-04-23T23:57:05.408Z,2.53
2023-04-23T23:59:32.588Z,3.67
